Augusta/Daniel Field, Georgia
Current Conditions -  °F | °C
As of 1:53 AM on Saturday 20 Dec 2014 (Local Time) from KDNL Reporting Station
Light Rain Light Rain  
Wind Chill: 52°   Ceiling: 7500
Heat Index: 52°   Visibility: 10mi
Dew Point: 45°   Wind: 7mph
Humidity: 77%   Direction: 110°ESE
Pressure: 30.15"   Gusts: NA
Location:  33.47°N, 82.03°W
Report Text: KDNL 200653Z AUTO 11006KT 10SM -RA OVC075 11/07 A3015 RMK AO2 RAB0557 SLP207 P0000 T01110072
Loading
Personal Weather Stations






























Interactive Weather Map New forecast layout! Learn more

10-Day Weather Forecast

Advertisements
Track Severe Weather on mobile